Time;durP1;ratioP1;P1;durP2;ratioP2;P2;SDS_P1;SDS_P2;PMS_P1;PMS_P2;Temp;Humidity;BMP_temperature;BMP_pressure;BME280_temperature;BME280_humidity;BME280_pressure;Samples;Min_cycle;Max_cycle;Signal;HPM_P1;HPM_P2
2021/12/04 00:00:01;;;;;;;5.53;4.25;;;6.60;85.50;;;;;;5032585;28;20186;-85
2021/12/04 00:02:27;;;;;;;7.57;5.25;;;6.70;85.80;;;;;;5031208;28;20289;-86
2021/12/04 00:04:55;;;;;;;5.87;4.60;;;6.70;86.00;;;;;;5017982;28;20226;-85
2021/12/04 00:07:22;;;;;;;11.68;4.32;;;6.50;85.90;;;;;;5025521;28;20604;-84
2021/12/04 00:09:50;;;;;;;5.57;4.13;;;6.70;86.20;;;;;;5022209;28;20187;-84
2021/12/04 00:12:17;;;;;;;4.95;4.00;;;6.90;86.30;;;;;;5028470;28;20218;-84
2021/12/04 00:14:44;;;;;;;7.70;5.10;;;6.70;85.70;;;;;;5033994;28;20233;-84
2021/12/04 00:17:10;;;;;;;7.32;5.22;;;6.70;85.80;;;;;;5036708;28;20178;-84
2021/12/04 00:19:36;;;;;;;5.23;4.30;;;6.80;85.80;;;;;;5016353;28;20246;-84
2021/12/04 00:22:03;;;;;;;5.07;4.33;;;6.60;85.50;;;;;;5021604;28;20638;-85
2021/12/04 00:24:28;;;;;;;6.20;4.80;;;6.60;85.80;;;;;;5031509;28;20441;-84
2021/12/04 00:26:55;;;;;;;6.53;4.70;;;6.70;86.20;;;;;;5029590;28;20206;-83
2021/12/04 00:29:22;;;;;;;4.38;3.97;;;6.80;86.20;;;;;;5034926;28;20432;-84
2021/12/04 00:31:56;;;;;;;5.63;4.07;;;6.90;86.00;;;;;;5014864;28;20197;-84
2021/12/04 00:34:25;;;;;;;4.72;4.07;;;6.90;85.70;;;;;;5021374;28;20206;-85
2021/12/04 00:37:49;;;;;;;6.28;4.30;;;7.00;85.60;;;;;;5017024;28;20216;-84
2021/12/04 00:50:36;;;;;;;6.57;4.85;;;6.90;85.70;;;;;;5028205;28;20308;-85
2021/12/04 00:53:02;;;;;;;5.50;4.40;;;7.00;85.50;;;;;;5030674;28;20213;-84
2021/12/04 00:55:28;;;;;;;6.00;4.07;;;7.20;85.50;;;;;;5032640;28;20551;-85
2021/12/04 00:57:53;;;;;;;5.20;4.60;;;7.00;85.10;;;;;;5033075;28;20991;-85
2021/12/04 01:00:20;;;;;;;6.60;4.80;;;7.00;85.30;;;;;;5033720;28;20420;-85
2021/12/04 01:02:46;;;;;;;7.05;4.95;;;7.00;85.50;;;;;;5022086;28;20281;-84
2021/12/04 01:05:12;;;;;;;6.28;5.47;;;7.10;85.60;;;;;;5031429;28;20201;-85
2021/12/04 01:07:38;;;;;;;5.97;4.90;;;7.20;85.10;;;;;;5020495;28;20573;-85
2021/12/04 01:10:07;;;;;;;5.25;4.75;;;7.10;84.50;;;;;;5025678;28;20194;-85
2021/12/04 01:12:33;;;;;;;8.25;4.68;;;7.20;84.30;;;;;;5024789;28;20574;-85
2021/12/04 01:14:59;;;;;;;6.10;4.65;;;7.20;84.00;;;;;;5029428;28;20206;-85
2021/12/04 01:17:24;;;;;;;6.43;4.80;;;7.30;84.00;;;;;;5014204;28;20190;-85
2021/12/04 01:19:50;;;;;;;8.80;5.67;;;7.40;83.90;;;;;;5015631;28;20195;-84
2021/12/04 01:22:20;;;;;;;7.13;5.47;;;7.10;84.80;;;;;;5022405;28;20198;-85
2021/12/04 01:24:46;;;;;;;5.35;4.43;;;7.10;84.40;;;;;;5033681;28;20213;-85
2021/12/04 01:27:14;;;;;;;5.68;5.18;;;7.30;84.50;;;;;;5036027;28;20186;-85
2021/12/04 01:29:40;;;;;;;6.95;5.38;;;7.40;84.20;;;;;;5025365;28;20634;-85
2021/12/04 01:32:08;;;;;;;6.18;5.35;;;7.50;83.80;;;;;;5032555;28;20181;-86
2021/12/04 01:34:34;;;;;;;5.55;4.63;;;7.50;83.60;;;;;;5042834;28;20217;-85
2021/12/04 01:37:01;;;;;;;10.40;5.18;;;7.50;83.50;;;;;;5040677;28;20193;-86
2021/12/04 01:39:27;;;;;;;8.60;5.43;;;7.60;83.40;;;;;;5018719;28;20731;-84
2021/12/04 01:41:53;;;;;;;9.43;5.20;;;7.60;82.90;;;;;;5037526;28;20209;-85
2021/12/04 01:44:20;;;;;;;6.63;5.55;;;7.60;82.70;;;;;;5043707;28;20237;-85
2021/12/04 01:46:46;;;;;;;7.85;5.25;;;7.20;82.30;;;;;;5038093;28;20202;-85
2021/12/04 01:49:11;;;;;;;5.97;5.30;;;7.10;82.90;;;;;;5032002;28;20186;-85
2021/12/04 01:51:37;;;;;;;9.40;6.80;;;6.90;83.40;;;;;;5026309;28;20257;-86
2021/12/04 01:54:04;;;;;;;5.07;4.60;;;7.00;83.80;;;;;;5028610;28;20281;-85
2021/12/04 01:56:33;;;;;;;7.32;6.15;;;7.00;84.00;;;;;;5020372;28;20182;-86
2021/12/04 01:58:59;;;;;;;6.50;5.28;;;7.00;84.10;;;;;;5036677;28;20182;-86
2021/12/04 02:01:25;;;;;;;8.88;5.75;;;6.80;84.20;;;;;;5033446;28;20207;-86
2021/12/04 02:03:51;;;;;;;7.10;5.97;;;6.80;84.60;;;;;;5036579;28;20220;-85
2021/12/04 02:06:17;;;;;;;12.83;6.27;;;7.00;84.90;;;;;;5035678;28;20185;-86
2021/12/04 02:08:43;;;;;;;7.73;4.60;;;7.00;84.50;;;;;;5029878;28;20210;-86
2021/12/04 02:11:09;;;;;;;8.75;5.55;;;6.80;84.40;;;;;;5036510;28;20217;-86
2021/12/04 02:13:36;;;;;;;9.07;5.75;;;6.90;84.70;;;;;;5016989;28;20191;-85
2021/12/04 02:16:03;;;;;;;8.95;5.95;;;6.90;84.70;;;;;;5029315;28;20205;-86
2021/12/04 02:18:29;;;;;;;6.80;4.88;;;7.00;84.50;;;;;;5026968;28;20217;-85
2021/12/04 02:20:55;;;;;;;11.37;5.80;;;6.70;84.40;;;;;;5023741;28;20222;-85
2021/12/04 02:23:21;;;;;;;9.73;5.50;;;6.80;84.90;;;;;;5021089;28;20441;-86
2021/12/04 02:25:46;;;;;;;8.83;6.50;;;6.90;85.00;;;;;;5035846;28;20199;-86
2021/12/04 02:28:13;;;;;;;8.33;5.50;;;7.10;85.00;;;;;;5045145;28;20472;-85
2021/12/04 02:30:42;;;;;;;6.82;5.90;;;7.10;84.90;;;;;;5039576;28;20167;-85
2021/12/04 02:33:11;;;;;;;6.80;5.55;;;7.10;84.50;;;;;;5022034;28;20256;-86
2021/12/04 02:35:43;;;;;;;7.43;5.10;;;7.00;84.30;;;;;;5030263;28;21659;-85
2021/12/04 02:38:08;;;;;;;11.40;6.03;;;6.90;84.40;;;;;;5029363;28;20661;-86
2021/12/04 02:40:34;;;;;;;8.17;6.37;;;6.80;84.70;;;;;;5018722;28;20182;-85
2021/12/04 02:43:00;;;;;;;7.28;5.55;;;7.00;84.90;;;;;;5025394;28;20969;-86
2021/12/04 02:45:26;;;;;;;5.90;4.93;;;6.80;84.60;;;;;;5018051;28;20194;-86
2021/12/04 02:47:51;;;;;;;6.23;4.80;;;6.70;84.90;;;;;;5025143;28;20185;-85
2021/12/04 02:50:17;;;;;;;7.33;5.27;;;6.60;85.10;;;;;;5018087;28;20429;-84
2021/12/04 02:52:44;;;;;;;6.83;4.77;;;6.70;85.50;;;;;;5037405;28;20231;-85
2021/12/04 02:55:10;;;;;;;6.55;5.10;;;7.00;85.50;;;;;;5020669;28;20452;-85
2021/12/04 02:57:41;;;;;;;6.53;4.63;;;7.20;85.20;;;;;;5027489;28;20182;-85
2021/12/04 03:00:10;;;;;;;5.80;5.20;;;7.20;84.80;;;;;;5024150;28;20229;-84
2021/12/04 03:02:36;;;;;;;7.80;5.65;;;7.30;84.50;;;;;;5026764;28;20264;-85
2021/12/04 03:05:06;;;;;;;8.60;5.43;;;7.40;84.20;;;;;;5030384;28;20202;-84
2021/12/04 03:07:32;;;;;;;5.90;5.15;;;7.20;83.70;;;;;;5034489;28;20531;-85
2021/12/04 03:09:58;;;;;;;6.57;5.40;;;7.10;83.70;;;;;;5030456;28;20178;-85
2021/12/04 03:12:25;;;;;;;14.13;5.70;;;7.20;83.90;;;;;;5038822;28;20206;-85
2021/12/04 03:14:52;;;;;;;6.63;5.90;;;7.10;83.70;;;;;;5027246;28;20500;-85
2021/12/04 03:17:20;;;;;;;7.15;5.90;;;7.10;84.70;;;;;;5019426;28;20178;-85
2021/12/04 03:19:49;;;;;;;7.43;5.80;;;7.20;84.00;;;;;;5018555;28;20194;-85
2021/12/04 03:22:15;;;;;;;7.13;5.95;;;7.20;84.00;;;;;;5020867;28;20212;-85
2021/12/04 03:24:42;;;;;;;8.13;7.05;;;7.20;83.90;;;;;;5027677;28;20202;-85
2021/12/04 03:27:08;;;;;;;8.30;6.05;;;7.10;83.90;;;;;;5038868;28;20181;-85
2021/12/04 03:29:41;;;;;;;7.30;5.87;;;7.10;84.20;;;;;;5037654;28;20166;-85
2021/12/04 03:42:48;;;;;;;10.13;7.28;;;7.40;83.60;;;;;;5017254;28;20210;-85
2021/12/04 03:45:14;;;;;;;8.45;6.57;;;7.40;83.60;;;;;;5034205;28;20202;-86
2021/12/04 03:47:45;;;;;;;11.10;8.13;;;7.60;83.80;;;;;;5022112;28;20548;-86
2021/12/04 03:50:12;;;;;;;8.77;6.97;;;7.50;83.40;;;;;;5036869;28;20755;-86
2021/12/04 03:52:39;;;;;;;7.93;7.13;;;7.50;83.40;;;;;;5035200;28;20217;-86
2021/12/04 03:55:06;;;;;;;8.73;7.40;;;7.60;83.40;;;;;;5023254;28;20210;-86
2021/12/04 03:57:32;;;;;;;11.50;8.25;;;7.50;83.40;;;;;;5017861;28;20210;-86
2021/12/04 03:59:59;;;;;;;12.20;8.53;;;7.50;83.40;;;;;;5026380;28;20229;-85
2021/12/04 04:02:26;;;;;;;13.73;7.13;;;7.50;83.30;;;;;;5014761;28;21004;-85
2021/12/04 04:04:52;;;;;;;11.02;7.50;;;7.50;83.40;;;;;;5030308;28;20198;-86
2021/12/04 04:07:17;;;;;;;12.60;7.90;;;7.30;83.20;;;;;;5025324;28;20174;-85
2021/12/04 04:09:43;;;;;;;11.77;7.93;;;7.00;83.40;;;;;;5035171;28;20170;-85
2021/12/04 04:12:09;;;;;;;11.07;7.60;;;7.20;84.10;;;;;;5025960;28;20418;-85
2021/12/04 04:14:35;;;;;;;10.57;7.50;;;7.20;84.10;;;;;;5017928;28;21020;-85
2021/12/04 04:17:01;;;;;;;10.53;8.03;;;7.30;84.30;;;;;;5019299;28;20174;-85
2021/12/04 04:19:27;;;;;;;11.30;7.57;;;7.30;84.20;;;;;;5041170;28;20421;-85
2021/12/04 04:21:58;;;;;;;10.30;6.85;;;7.40;84.20;;;;;;5043664;28;20511;-84
2021/12/04 04:24:26;;;;;;;11.10;8.45;;;7.50;84.10;;;;;;5042843;28;20205;-86
2021/12/04 04:26:53;;;;;;;14.73;8.10;;;7.40;83.90;;;;;;5050448;28;20205;-85
2021/12/04 04:29:20;;;;;;;11.07;7.65;;;7.40;83.90;;;;;;5008005;28;20190;-85
2021/12/04 04:31:47;;;;;;;11.00;7.90;;;7.60;83.90;;;;;;5014876;28;20186;-85
2021/12/04 04:34:23;;;;;;;13.13;8.50;;;7.50;83.50;;;;;;5022130;28;20655;-85
2021/12/04 04:40:07;;;;;;;12.60;8.73;;;7.10;83.40;;;;;;5013060;28;20209;-85
2021/12/04 05:14:37;;;;;;;9.68;7.13;;;6.90;86.20;;;;;;5026554;28;20665;-85
2021/12/04 05:17:07;;;;;;;10.55;7.10;;;7.00;86.00;;;;;;5028634;28;20183;-85
2021/12/04 05:19:53;;;;;;;11.10;7.60;;;6.90;85.70;;;;;;5014903;28;20182;-85
2021/12/04 05:22:20;;;;;;;12.88;7.47;;;6.80;85.60;;;;;;5035563;28;20205;-85
2021/12/04 05:24:45;;;;;;;9.60;6.85;;;7.10;85.70;;;;;;5028742;28;20213;-86
2021/12/04 05:27:11;;;;;;;12.90;7.30;;;7.20;85.40;;;;;;5036841;28;20185;-85
2021/12/04 05:29:37;;;;;;;9.53;6.63;;;7.30;85.10;;;;;;5036764;28;20204;-85
2021/12/04 05:32:05;;;;;;;11.97;7.60;;;7.30;84.80;;;;;;5023428;28;20218;-85
2021/12/04 05:34:32;;;;;;;10.68;7.07;;;7.40;84.50;;;;;;5025863;28;20198;-86
2021/12/04 05:36:58;;;;;;;9.20;6.85;;;7.50;84.50;;;;;;5037805;28;20248;-85
2021/12/04 05:39:24;;;;;;;9.10;6.40;;;7.50;84.10;;;;;;5038769;28;20515;-86
2021/12/04 05:41:51;;;;;;;9.00;6.93;;;7.50;84.00;;;;;;5027964;28;20661;-86
2021/12/04 05:44:20;;;;;;;9.27;7.15;;;7.50;83.90;;;;;;5029654;28;20261;-85
2021/12/04 05:46:53;;;;;;;11.45;6.00;;;7.40;83.70;;;;;;5032957;28;20278;-85
2021/12/04 05:49:52;;;;;;;8.68;5.22;;;7.50;83.70;;;;;;5023906;28;20668;-86
2021/12/04 05:54:49;;;;;;;9.00;6.80;;;7.50;83.40;;;;;;5027009;28;20634;-85
2021/12/04 05:57:14;;;;;;;9.60;6.18;;;7.60;83.20;;;;;;5029457;28;20182;-86
2021/12/04 05:59:40;;;;;;;13.23;6.00;;;7.40;82.90;;;;;;5024756;28;20285;-85
2021/12/04 06:02:06;;;;;;;9.83;6.63;;;7.20;83.10;;;;;;5023562;28;20202;-85
2021/12/04 06:04:32;;;;;;;9.87;6.33;;;6.90;83.80;;;;;;5030764;28;20444;-86
2021/12/04 06:06:57;;;;;;;10.27;6.43;;;7.10;84.40;;;;;;5033551;28;20417;-86
2021/12/04 06:09:23;;;;;;;9.27;6.47;;;7.30;84.50;;;;;;5029050;28;20182;-86
2021/12/04 06:11:49;;;;;;;9.75;7.30;;;7.30;84.50;;;;;;5034472;28;20182;-85
2021/12/04 06:14:15;;;;;;;10.43;6.73;;;7.30;84.30;;;;;;5028761;28;20237;-85
2021/12/04 06:16:41;;;;;;;10.67;7.30;;;7.20;84.20;;;;;;5024304;28;20425;-86
2021/12/04 06:19:24;;;;;;;14.63;7.67;;;7.40;84.40;;;;;;5029890;28;20504;-86
2021/12/04 06:24:34;;;;;;;10.93;6.75;;;7.20;83.70;;;;;;5027604;28;20233;-86
2021/12/04 06:27:00;;;;;;;11.15;7.40;;;7.20;84.00;;;;;;5017644;28;20626;-86
2021/12/04 06:29:26;;;;;;;12.83;8.23;;;7.20;84.10;;;;;;5014966;28;20241;-85
2021/12/04 06:31:53;;;;;;;7.83;6.30;;;7.30;84.40;;;;;;5016960;28;20205;-86
2021/12/04 06:34:19;;;;;;;11.00;7.13;;;7.50;84.40;;;;;;5039556;28;20571;-85
2021/12/04 06:36:45;;;;;;;12.32;6.68;;;7.40;84.30;;;;;;5021341;28;20639;-85
2021/12/04 06:39:11;;;;;;;11.03;8.00;;;7.50;84.40;;;;;;5016502;28;20294;-85
2021/12/04 06:41:37;;;;;;;11.07;6.97;;;7.60;84.20;;;;;;5024240;28;20472;-85
2021/12/04 06:44:03;;;;;;;10.43;7.77;;;7.60;84.00;;;;;;5019319;28;20228;-85
2021/12/04 06:46:30;;;;;;;10.45;8.07;;;7.50;84.10;;;;;;5025886;28;20288;-85
2021/12/04 06:51:32;;;;;;;12.13;6.43;;;7.70;83.40;;;;;;5027518;28;20182;-85
2021/12/04 06:54:03;;;;;;;11.43;7.97;;;7.60;83.50;;;;;;5033916;28;20300;-85
2021/12/04 06:56:35;;;;;;;10.63;7.55;;;7.50;82.80;;;;;;5034821;28;20205;-85
2021/12/04 06:59:07;;;;;;;11.90;6.95;;;7.30;82.90;;;;;;5032810;28;20621;-86
2021/12/04 07:01:34;;;;;;;15.45;8.30;;;7.30;83.50;;;;;;5016855;28;20194;-86
2021/12/04 07:03:59;;;;;;;9.63;7.25;;;7.30;84.00;;;;;;5025880;28;20237;-86
2021/12/04 07:06:25;;;;;;;9.60;7.20;;;7.40;84.00;;;;;;5035088;28;20185;-86
2021/12/04 07:08:51;;;;;;;10.47;6.60;;;7.40;83.80;;;;;;5027822;28;20853;-85
2021/12/04 07:11:17;;;;;;;12.40;8.13;;;7.40;83.60;;;;;;5028683;28;20236;-87
2021/12/04 07:13:43;;;;;;;12.17;8.63;;;7.30;83.40;;;;;;5031712;28;20797;-86
2021/12/04 07:16:12;;;;;;;10.87;7.27;;;7.20;83.60;;;;;;5025713;28;20426;-85
2021/12/04 07:18:38;;;;;;;12.75;8.27;;;7.10;83.80;;;;;;5028791;28;20804;-85
2021/12/04 07:21:04;;;;;;;11.57;7.72;;;7.00;84.30;;;;;;5025348;28;20688;-84
2021/12/04 07:23:31;;;;;;;14.20;8.80;;;7.20;84.60;;;;;;5019628;28;20175;-85
2021/12/04 07:25:58;;;;;;;12.73;8.13;;;7.40;84.80;;;;;;5026699;28;20277;-85
2021/12/04 07:28:24;;;;;;;11.13;8.73;;;7.50;84.40;;;;;;5015722;28;20593;-85
2021/12/04 07:30:51;;;;;;;9.83;7.30;;;7.60;84.10;;;;;;5020447;28;20217;-85
2021/12/04 07:33:17;;;;;;;14.35;7.90;;;7.60;83.40;;;;;;5029047;28;20547;-85
2021/12/04 07:35:42;;;;;;;13.32;9.10;;;7.30;83.10;;;;;;5035935;28;20588;-84
2021/12/04 07:38:10;;;;;;;11.63;7.67;;;7.20;83.20;;;;;;5034128;28;20159;-84
2021/12/04 07:40:38;;;;;;;14.80;8.70;;;7.30;83.60;;;;;;5035335;28;20178;-85
2021/12/04 07:43:04;;;;;;;12.75;7.80;;;7.50;83.60;;;;;;5035708;28;20217;-85
2021/12/04 07:45:29;;;;;;;16.40;9.13;;;7.40;83.10;;;;;;5034907;28;20198;-85
2021/12/04 07:47:55;;;;;;;12.33;7.70;;;7.10;83.30;;;;;;5034755;28;20428;-86
2021/12/04 07:50:23;;;;;;;14.87;8.40;;;7.30;83.80;;;;;;5036778;28;20182;-81
2021/12/04 07:52:49;;;;;;;12.10;8.05;;;7.50;83.90;;;;;;5040654;28;20170;-81
2021/12/04 07:55:15;;;;;;;15.00;8.10;;;7.60;83.40;;;;;;5049641;28;20213;-81
2021/12/04 07:57:41;;;;;;;14.30;8.77;;;7.60;83.30;;;;;;5040326;28;20339;-81
2021/12/04 08:00:11;;;;;;;11.50;7.67;;;7.60;83.30;;;;;;5044440;28;20421;-81
2021/12/04 08:02:38;;;;;;;11.32;7.63;;;7.70;83.40;;;;;;5043999;28;20456;-81
2021/12/04 08:05:04;;;;;;;14.70;7.97;;;7.80;83.30;;;;;;5046480;28;20566;-81
2021/12/04 08:07:30;;;;;;;13.60;8.13;;;7.60;82.60;;;;;;5038622;28;20167;-82
2021/12/04 08:09:56;;;;;;;17.90;7.47;;;7.60;82.50;;;;;;5036343;28;20196;-81
2021/12/04 08:12:21;;;;;;;11.43;7.77;;;7.20;82.90;;;;;;5038182;28;20178;-81
2021/12/04 08:14:47;;;;;;;11.83;8.17;;;7.20;83.50;;;;;;5036268;28;20288;-80
2021/12/04 08:17:13;;;;;;;12.77;8.30;;;7.20;84.00;;;;;;5036520;28;20209;-81
2021/12/04 08:19:40;;;;;;;13.43;8.17;;;7.20;84.30;;;;;;5036907;28;20565;-81
2021/12/04 08:22:06;;;;;;;10.75;7.32;;;7.10;84.50;;;;;;5037699;28;21019;-81
2021/12/04 08:24:31;;;;;;;14.07;7.67;;;7.30;84.70;;;;;;5038197;28;20222;-81
2021/12/04 08:26:57;;;;;;;12.20;7.50;;;7.20;84.40;;;;;;5037608;28;20420;-81
2021/12/04 08:29:23;;;;;;;12.13;8.20;;;7.30;84.50;;;;;;5024709;28;20174;-82
2021/12/04 08:31:50;;;;;;;15.77;8.73;;;7.30;84.50;;;;;;5016801;28;20198;-82
2021/12/04 08:34:16;;;;;;;15.85;7.57;;;7.10;84.40;;;;;;5019136;28;20214;-82
2021/12/04 08:36:42;;;;;;;10.88;7.35;;;7.30;84.60;;;;;;5031489;28;20175;-82
2021/12/04 08:39:08;;;;;;;11.80;7.80;;;7.30;84.40;;;;;;5046499;28;20188;-81
2021/12/04 08:41:34;;;;;;;12.73;8.20;;;7.60;84.60;;;;;;5052206;28;20225;-82
2021/12/04 08:44:00;;;;;;;11.27;6.93;;;7.70;84.10;;;;;;5043660;28;20491;-82
2021/12/04 08:46:26;;;;;;;12.47;8.03;;;7.60;83.70;;;;;;5036357;28;20193;-82
2021/12/04 08:48:57;;;;;;;10.98;7.07;;;7.70;83.70;;;;;;5035694;28;20413;-81
2021/12/04 08:51:23;;;;;;;11.00;6.28;;;7.80;83.50;;;;;;5035338;28;20196;-81
2021/12/04 08:53:50;;;;;;;10.38;6.03;;;7.80;83.00;;;;;;5034696;28;20201;-82
2021/12/04 08:56:16;;;;;;;15.52;7.10;;;7.70;82.90;;;;;;5038703;28;20204;-82
2021/12/04 08:58:42;;;;;;;8.83;6.40;;;7.70;82.90;;;;;;5040089;28;20707;-81
2021/12/04 09:01:13;;;;;;;11.10;7.27;;;7.80;83.00;;;;;;5039812;28;20482;-82
2021/12/04 09:03:46;;;;;;;10.27;7.35;;;7.80;82.80;;;;;;5038802;28;20408;-82
2021/12/04 09:06:12;;;;;;;11.40;7.20;;;7.70;82.70;;;;;;5040507;28;20244;-82
2021/12/04 09:08:39;;;;;;;10.20;7.45;;;7.90;82.80;;;;;;5038718;28;20637;-82
2021/12/04 09:11:12;;;;;;;10.77;7.75;;;8.00;82.80;;;;;;5040872;28;20517;-82
2021/12/04 09:13:38;;;;;;;13.15;7.82;;;7.80;82.20;;;;;;5023128;28;20174;-81
2021/12/04 09:16:05;;;;;;;14.10;8.32;;;7.50;82.20;;;;;;5039580;28;20173;-81
2021/12/04 09:18:30;;;;;;;11.68;6.50;;;7.70;82.70;;;;;;5040480;28;20170;-82
2021/12/04 09:20:56;;;;;;;12.27;7.13;;;7.70;82.80;;;;;;5039527;28;20537;-82
2021/12/04 09:23:25;;;;;;;11.40;7.20;;;7.60;82.80;;;;;;5039403;28;20792;-81
2021/12/04 09:25:54;;;;;;;13.18;8.20;;;7.60;83.00;;;;;;5041845;28;20411;-81
2021/12/04 09:28:26;;;;;;;13.20;8.20;;;7.70;82.90;;;;;;5034974;28;20171;-82
2021/12/04 10:03:19;;;;;;;13.10;8.35;;;7.40;84.20;;;;;;5044058;28;20202;-81
2021/12/04 10:14:40;;;;;;;22.60;9.35;;;8.30;83.40;;;;;;5042708;28;20731;-80
2021/12/04 10:20:14;;;;;;;17.85;8.05;;;7.90;82.10;;;;;;5045778;28;20649;-80
2021/12/04 10:23:03;;;;;;;12.40;7.70;;;8.30;82.40;;;;;;5039311;28;20242;-80
2021/12/04 10:33:49;;;;;;;11.98;7.97;;;8.40;81.50;;;;;;5040314;28;20700;-81
2021/12/04 10:36:28;;;;;;;10.23;6.87;;;8.50;81.70;;;;;;5039557;28;20174;-80
2021/12/04 10:38:54;;;;;;;17.20;8.60;;;8.50;81.80;;;;;;5043187;28;20436;-81
2021/12/04 10:41:32;;;;;;;18.30;7.82;;;8.70;81.40;;;;;;5039877;28;20210;-80
2021/12/04 10:44:17;;;;;;;10.85;6.60;;;8.70;80.90;;;;;;5038429;28;20224;-81
2021/12/04 10:47:04;;;;;;;17.40;7.43;;;8.70;80.70;;;;;;5031004;28;20242;-81
2021/12/04 10:52:33;;;;;;;12.75;8.60;;;8.80;80.70;;;;;;5036598;28;20197;-80
2021/12/04 10:55:16;;;;;;;11.35;6.47;;;8.70;81.00;;;;;;5023499;28;20207;-80
2021/12/04 11:00:35;;;;;;;17.33;8.48;;;8.80;80.90;;;;;;5026835;28;20201;-80
2021/12/04 11:03:19;;;;;;;14.13;8.15;;;8.80;81.10;;;;;;5016498;28;20696;-80
2021/12/04 11:06:31;;;;;;;15.52;8.50;;;8.70;81.30;;;;;;5018557;28;20214;-81
2021/12/04 11:22:55;;;;;;;18.50;8.43;;;8.50;82.50;;;;;;5046662;28;20665;-81
2021/12/04 11:42:05;;;;;;;19.60;9.02;;;7.70;86.10;;;;;;5037536;28;20665;-80
2021/12/04 11:44:46;;;;;;;16.30;8.88;;;7.70;86.40;;;;;;5034251;28;20205;-81
2021/12/04 11:47:12;;;;;;;23.20;8.63;;;7.70;86.60;;;;;;5028320;28;20176;-80
2021/12/04 11:49:38;;;;;;;18.13;8.75;;;7.80;86.70;;;;;;5026803;28;20221;-81
2021/12/04 11:52:14;;;;;;;13.60;8.10;;;7.70;86.80;;;;;;5019286;28;20620;-80
2021/12/04 11:54:47;;;;;;;14.68;8.95;;;7.70;87.00;;;;;;5026348;28;20444;-81
2021/12/04 11:57:15;;;;;;;17.85;8.05;;;7.70;87.00;;;;;;5021230;28;20190;-83
2021/12/04 11:59:43;;;;;;;16.50;9.10;;;7.60;87.00;;;;;;5016098;28;20186;-80
2021/12/04 12:02:16;;;;;;;15.43;7.95;;;7.60;87.20;;;;;;5027987;28;20687;-80
2021/12/04 12:04:49;;;;;;;10.70;6.63;;;7.60;87.20;;;;;;5017167;28;20743;-81
2021/12/04 12:07:22;;;;;;;20.45;9.27;;;7.60;87.20;;;;;;5016657;28;20178;-81
2021/12/04 12:10:00;;;;;;;22.73;10.27;;;7.50;87.30;;;;;;5018821;28;20269;-81
2021/12/04 12:12:33;;;;;;;18.55;9.27;;;7.60;87.50;;;;;;5019875;28;20175;-80
2021/12/04 12:15:03;;;;;;;21.00;10.63;;;7.60;87.70;;;;;;5031021;28;20596;-80
2021/12/04 12:17:33;;;;;;;26.10;10.77;;;7.60;87.70;;;;;;5017616;28;20258;-81
2021/12/04 12:20:00;;;;;;;27.02;10.27;;;7.50;87.80;;;;;;5020412;28;20213;-80
2021/12/04 12:25:25;;;;;;;25.05;12.05;;;7.50;88.00;;;;;;5015424;28;20194;-80
2021/12/04 12:38:52;;;;;;;15.48;8.32;;;7.60;87.90;;;;;;5035097;28;20248;-81
2021/12/04 12:41:27;;;;;;;23.42;8.00;;;7.60;88.10;;;;;;5033284;28;20166;-82
2021/12/04 12:44:05;;;;;;;21.00;9.00;;;7.60;87.80;;;;;;5027968;28;20285;-81
2021/12/04 12:46:46;;;;;;;15.63;9.02;;;7.70;88.00;;;;;;5026906;28;20179;-81
2021/12/04 12:49:25;;;;;;;25.33;8.43;;;7.60;88.00;;;;;;5029440;28;20189;-80
2021/12/04 12:51:59;;;;;;;19.52;8.60;;;7.50;88.20;;;;;;5025541;28;20277;-81
2021/12/04 12:54:36;;;;;;;25.75;9.40;;;7.50;89.10;;;;;;5030033;28;20293;-80
2021/12/04 12:57:17;;;;;;;27.42;10.32;;;7.60;88.50;;;;;;5024341;28;20179;-79
2021/12/04 13:13:33;;;;;;;21.80;10.43;;;7.70;89.00;;;;;;5039400;28;20181;-81
2021/12/04 13:16:05;;;;;;;18.70;7.82;;;7.80;89.00;;;;;;5032284;28;20190;-84
2021/12/04 13:18:36;;;;;;;12.73;7.15;;;7.60;88.70;;;;;;5029514;28;20197;-82
2021/12/04 13:21:10;;;;;;;14.75;7.18;;;7.50;89.00;;;;;;5036396;28;20691;-82
2021/12/04 13:23:37;;;;;;;18.05;7.55;;;7.50;89.30;;;;;;5035440;28;20178;-82
2021/12/04 13:26:10;;;;;;;13.73;6.43;;;7.40;89.20;;;;;;5025824;28;20190;-82
2021/12/04 13:28:39;;;;;;;13.32;6.60;;;7.50;89.40;;;;;;5023409;28;20228;-82
2021/12/04 13:31:05;;;;;;;13.40;6.57;;;7.60;89.30;;;;;;5021938;28;20178;-81
2021/12/04 13:33:36;;;;;;;12.95;5.50;;;7.60;89.20;;;;;;5026600;28;20178;-82
2021/12/04 13:36:14;;;;;;;22.75;6.65;;;7.60;89.20;;;;;;5034758;28;20185;-81
2021/12/04 13:38:40;;;;;;;9.75;5.82;;;7.60;89.10;;;;;;5037939;28;20192;-82
2021/12/04 13:41:06;;;;;;;13.50;5.07;;;7.60;89.10;;;;;;5041856;28;20245;-82
2021/12/04 13:43:32;;;;;;;17.20;4.87;;;7.60;88.90;;;;;;5037522;28;20431;-82
2021/12/04 13:46:00;;;;;;;14.95;5.47;;;7.60;89.50;;;;;;5030470;28;20504;-82
2021/12/04 13:48:27;;;;;;;10.07;4.72;;;7.60;88.70;;;;;;5037023;28;20191;-81
2021/12/04 13:50:53;;;;;;;17.40;5.00;;;7.70;88.90;;;;;;5048378;28;20169;-81
2021/12/04 13:53:29;;;;;;;11.00;5.30;;;7.70;88.80;;;;;;5035037;28;20254;-82
2021/12/04 13:56:11;;;;;;;11.75;3.90;;;7.70;88.80;;;;;;5024415;28;20471;-83
2021/12/04 13:58:57;;;;;;;7.60;3.88;;;7.90;88.80;;;;;;5036454;28;20190;-81
2021/12/04 14:01:24;;;;;;;7.82;3.65;;;7.70;88.50;;;;;;5038502;28;20181;-81
2021/12/04 14:03:55;;;;;;;4.88;2.80;;;7.70;88.60;;;;;;5024254;28;20213;-82
2021/12/04 14:06:21;;;;;;;7.03;3.53;;;7.70;88.60;;;;;;5040767;28;20180;-81
2021/12/04 14:09:06;;;;;;;7.53;3.20;;;7.90;88.70;;;;;;5039273;28;20276;-81
2021/12/04 14:11:55;;;;;;;10.38;3.83;;;7.90;88.70;;;;;;5033215;28;20653;-83
2021/12/04 14:14:23;;;;;;;4.80;3.80;;;8.00;88.50;;;;;;5024802;28;20206;-82
2021/12/04 14:16:52;;;;;;;5.80;3.20;;;8.00;88.00;;;;;;5033784;28;20183;-81
2021/12/04 14:19:19;;;;;;;4.38;2.85;;;8.00;88.00;;;;;;5026353;28;20264;-80
2021/12/04 14:22:13;;;;;;;5.10;3.03;;;8.00;88.00;;;;;;5020881;28;20206;-79
2021/12/04 14:24:48;;;;;;;13.32;3.75;;;7.70;88.10;;;;;;5014955;28;20216;-80
2021/12/04 14:27:23;;;;;;;9.48;3.30;;;7.80;88.40;;;;;;5032837;28;20169;-80
2021/12/04 14:29:57;;;;;;;6.60;3.45;;;7.70;88.30;;;;;;5028887;28;20181;-80
2021/12/04 14:32:26;;;;;;;7.13;2.33;;;7.70;88.20;;;;;;5007000;28;20581;-80
2021/12/04 14:35:06;;;;;;;9.35;3.10;;;7.50;87.30;;;;;;5025472;28;20204;-79
2021/12/04 14:37:40;;;;;;;3.33;1.75;;;7.50;87.20;;;;;;5041667;28;20185;-80
2021/12/04 14:40:09;;;;;;;5.28;2.30;;;7.50;87.10;;;;;;5024246;28;20186;-80
2021/12/04 14:42:37;;;;;;;17.15;3.10;;;7.50;87.30;;;;;;5025699;28;20198;-82
2021/12/04 14:45:19;;;;;;;9.65;2.60;;;7.50;87.40;;;;;;5031165;28;20197;-79
2021/12/04 14:47:57;;;;;;;9.43;2.33;;;7.50;87.60;;;;;;5038503;28;20189;-80
2021/12/04 14:50:26;;;;;;;4.95;2.50;;;7.60;87.50;;;;;;5027476;28;20182;-79
2021/12/04 14:52:58;;;;;;;4.40;3.22;;;7.70;87.60;;;;;;5037787;28;20178;-81
2021/12/04 14:55:34;;;;;;;7.10;3.30;;;7.70;87.50;;;;;;5039833;28;20269;-81
2021/12/04 14:58:01;;;;;;;4.72;2.83;;;7.70;87.20;;;;;;5038583;28;20311;-81
2021/12/04 15:00:55;;;;;;;6.53;3.30;;;7.70;86.80;;;;;;5029864;28;20201;-81
2021/12/04 15:03:43;;;;;;;15.38;2.80;;;7.70;86.40;;;;;;5031997;28;20216;-80
2021/12/04 15:06:13;;;;;;;5.15;2.72;;;7.70;86.10;;;;;;5020751;28;20526;-80
2021/12/04 15:08:54;;;;;;;6.43;2.25;;;7.60;85.70;;;;;;5034249;28;20552;-81
2021/12/04 15:11:22;;;;;;;5.47;2.85;;;7.50;85.70;;;;;;5041694;28;20550;-81
2021/12/04 15:13:53;;;;;;;10.80;2.40;;;7.50;85.70;;;;;;5031650;28;20267;-81
2021/12/04 15:16:31;;;;;;;7.65;2.97;;;7.50;85.50;;;;;;5021125;28;20753;-80
2021/12/04 15:19:11;;;;;;;11.57;2.65;;;7.60;86.20;;;;;;5019375;28;20209;-81
2021/12/04 15:21:50;;;;;;;13.93;3.75;;;7.60;85.20;;;;;;5025812;28;20217;-81
2021/12/04 15:24:23;;;;;;;6.95;3.70;;;7.60;85.00;;;;;;5018443;28;20202;-81
2021/12/04 15:26:55;;;;;;;6.93;2.90;;;7.50;84.90;;;;;;5019816;28;20175;-79
2021/12/04 15:29:24;;;;;;;10.05;2.13;;;7.50;84.80;;;;;;5020453;28;20181;-80
2021/12/04 15:31:52;;;;;;;12.32;3.42;;;7.40;84.40;;;;;;5022766;28;20194;-81
2021/12/04 15:34:50;;;;;;;10.10;2.90;;;7.40;84.20;;;;;;5020445;28;20218;-80
2021/12/04 15:37:58;;;;;;;6.97;2.72;;;7.40;84.10;;;;;;5032249;28;20634;-82
2021/12/04 15:40:31;;;;;;;11.20;2.55;;;7.40;83.80;;;;;;5028086;28;20741;-81
2021/12/04 15:45:32;;;;;;;9.85;3.08;;;7.10;83.70;;;;;;5039900;28;20285;-82
2021/12/04 15:48:43;;;;;;;14.63;3.45;;;7.10;84.00;;;;;;5019593;28;20190;-82
2021/12/04 15:54:06;;;;;;;9.10;2.63;;;7.10;83.80;;;;;;5026765;28;20201;-82
2021/12/04 15:56:41;;;;;;;10.07;2.70;;;7.00;83.60;;;;;;5033363;28;20182;-81
2021/12/04 15:59:11;;;;;;;7.40;2.40;;;7.00;83.50;;;;;;5023648;28;20158;-81
2021/12/04 16:01:36;;;;;;;8.55;2.45;;;7.00;83.40;;;;;;5019083;28;20311;-81
2021/12/04 16:04:02;;;;;;;15.63;2.80;;;7.00;83.30;;;;;;5030408;28;20683;-80
2021/12/04 16:06:40;;;;;;;13.60;2.20;;;6.90;83.20;;;;;;5021051;28;20221;-80
2021/12/04 16:09:08;;;;;;;15.70;2.22;;;6.90;83.20;;;;;;5026482;28;20530;-80